sensor_id;sensor_type;location;lat;lon;timestamp;temperature;humidity
9125;DHT22;4597;48.730;9.114;2024-03-23T00:55:34;9.90;99.90
9125;DHT22;4597;48.730;9.114;2024-03-23T00:57:59;9.80;99.90
9125;DHT22;4597;48.730;9.114;2024-03-23T01:00:25;9.90;99.90
9125;DHT22;4597;48.730;9.114;2024-03-23T01:02:50;9.90;99.90
9125;DHT22;4597;48.730;9.114;2024-03-23T01:05:16;9.90;99.90
9125;DHT22;4597;48.730;9.114;2024-03-23T01:07:42;9.80;99.90
9125;DHT22;4597;48.730;9.114;2024-03-23T01:10:07;9.70;99.90
9125;DHT22;4597;48.730;9.114;2024-03-23T01:12:33;9.70;99.90
9125;DHT22;4597;48.730;9.114;2024-03-23T01:14:58;9.80;99.90
9125;DHT22;4597;48.730;9.114;2024-03-23T01:17:24;9.70;99.90
9125;DHT22;4597;48.730;9.114;2024-03-23T01:19:49;9.70;99.90
9125;DHT22;4597;48.730;9.114;2024-03-23T01:22:14;9.80;99.90
9125;DHT22;4597;48.730;9.114;2024-03-23T01:24:40;9.70;99.90
9125;DHT22;4597;48.730;9.114;2024-03-23T01:27:06;9.80;99.90
9125;DHT22;4597;48.730;9.114;2024-03-23T01:29:31;9.70;99.90
9125;DHT22;4597;48.730;9.114;2024-03-23T01:31:57;9.70;99.90
9125;DHT22;4597;48.730;9.114;2024-03-23T01:34:22;9.70;99.90
9125;DHT22;4597;48.730;9.114;2024-03-23T01:36:48;9.80;99.90
9125;DHT22;4597;48.730;9.114;2024-03-23T01:39:13;9.90;99.90
9125;DHT22;4597;48.730;9.114;2024-03-23T01:41:40;9.90;99.90
9125;DHT22;4597;48.730;9.114;2024-03-23T01:44:08;10.00;99.90
9125;DHT22;4597;48.730;9.114;2024-03-23T01:46:43;10.00;99.90
9125;DHT22;4597;48.730;9.114;2024-03-23T01:49:09;10.00;99.90
9125;DHT22;4597;48.730;9.114;2024-03-23T01:51:35;10.00;99.90
9125;DHT22;4597;48.730;9.114;2024-03-23T01:54:04;10.00;99.90
9125;DHT22;4597;48.730;9.114;2024-03-23T01:56:34;10.00;99.90
9125;DHT22;4597;48.730;9.114;2024-03-23T01:59:01;10.00;99.90
9125;DHT22;4597;48.730;9.114;2024-03-23T02:01:27;10.00;99.90
9125;DHT22;4597;48.730;9.114;2024-03-23T02:03:52;10.00;99.90
9125;DHT22;4597;48.730;9.114;2024-03-23T02:06:18;9.90;99.90
9125;DHT22;4597;48.730;9.114;2024-03-23T02:08:44;9.90;99.90
9125;DHT22;4597;48.730;9.114;2024-03-23T02:11:09;9.90;99.90
9125;DHT22;4597;48.730;9.114;2024-03-23T02:13:35;9.90;99.90
9125;DHT22;4597;48.730;9.114;2024-03-23T02:16:00;10.00;99.90
9125;DHT22;4597;48.730;9.114;2024-03-23T02:18:26;9.90;99.90
9125;DHT22;4597;48.730;9.114;2024-03-23T02:20:51;9.80;99.90
9125;DHT22;4597;48.730;9.114;2024-03-23T02:23:17;9.60;99.90
9125;DHT22;4597;48.730;9.114;2024-03-23T02:25:46;9.50;99.90
9125;DHT22;4597;48.730;9.114;2024-03-23T02:28:12;9.50;99.90
9125;DHT22;4597;48.730;9.114;2024-03-23T02:30:37;9.50;99.90
9125;DHT22;4597;48.730;9.114;2024-03-23T02:33:03;9.50;99.90
9125;DHT22;4597;48.730;9.114;2024-03-23T02:35:29;9.50;99.90
9125;DHT22;4597;48.730;9.114;2024-03-23T02:37:55;9.50;99.90
9125;DHT22;4597;48.730;9.114;2024-03-23T02:40:23;9.60;99.90
9125;DHT22;4597;48.730;9.114;2024-03-23T02:42:49;9.60;99.90
9125;DHT22;4597;48.730;9.114;2024-03-23T02:45:14;9.70;99.90
9125;DHT22;4597;48.730;9.114;2024-03-23T02:47:40;9.70;99.90
9125;DHT22;4597;48.730;9.114;2024-03-23T02:50:06;9.70;99.90
9125;DHT22;4597;48.730;9.114;2024-03-23T02:52:31;9.70;99.90
9125;DHT22;4597;48.730;9.114;2024-03-23T02:54:57;9.70;99.90
9125;DHT22;4597;48.730;9.114;2024-03-23T02:57:23;9.70;99.90
9125;DHT22;4597;48.730;9.114;2024-03-23T02:59:49;9.80;99.90
9125;DHT22;4597;48.730;9.114;2024-03-23T03:02:15;9.90;99.90
9125;DHT22;4597;48.730;9.114;2024-03-23T03:04:41;9.90;99.90
9125;DHT22;4597;48.730;9.114;2024-03-23T03:07:06;10.00;99.90
9125;DHT22;4597;48.730;9.114;2024-03-23T03:09:32;10.00;99.90
9125;DHT22;4597;48.730;9.114;2024-03-23T03:11:58;10.00;99.90
9125;DHT22;4597;48.730;9.114;2024-03-23T03:14:24;10.00;99.90
9125;DHT22;4597;48.730;9.114;2024-03-23T03:16:49;10.00;99.90
9125;DHT22;4597;48.730;9.114;2024-03-23T03:19:15;10.00;99.90
9125;DHT22;4597;48.730;9.114;2024-03-23T03:21:42;10.00;99.90
9125;DHT22;4597;48.730;9.114;2024-03-23T03:24:07;10.00;99.90
9125;DHT22;4597;48.730;9.114;2024-03-23T03:26:33;9.90;99.90
9125;DHT22;4597;48.730;9.114;2024-03-23T03:28:58;9.90;99.90
9125;DHT22;4597;48.730;9.114;2024-03-23T03:31:24;9.90;99.90
9125;DHT22;4597;48.730;9.114;2024-03-23T03:33:50;10.00;99.90
9125;DHT22;4597;48.730;9.114;2024-03-23T03:36:16;10.00;99.90
9125;DHT22;4597;48.730;9.114;2024-03-23T03:38:42;10.10;99.90
9125;DHT22;4597;48.730;9.114;2024-03-23T03:41:07;10.00;99.90
9125;DHT22;4597;48.730;9.114;2024-03-23T03:43:33;10.00;99.90
9125;DHT22;4597;48.730;9.114;2024-03-23T03:46:00;10.00;99.90
9125;DHT22;4597;48.730;9.114;2024-03-23T03:48:26;10.00;99.90
9125;DHT22;4597;48.730;9.114;2024-03-23T03:50:52;10.20;99.90
9125;DHT22;4597;48.730;9.114;2024-03-23T03:53:18;10.30;99.90
9125;DHT22;4597;48.730;9.114;2024-03-23T03:55:44;10.40;99.90
9125;DHT22;4597;48.730;9.114;2024-03-23T03:58:10;10.50;99.90
9125;DHT22;4597;48.730;9.114;2024-03-23T04:00:35;10.50;99.90
9125;DHT22;4597;48.730;9.114;2024-03-23T04:03:01;10.40;99.90
9125;DHT22;4597;48.730;9.114;2024-03-23T04:05:27;10.40;99.90
9125;DHT22;4597;48.730;9.114;2024-03-23T04:07:52;10.60;99.90
9125;DHT22;4597;48.730;9.114;2024-03-23T04:10:19;10.70;99.90
9125;DHT22;4597;48.730;9.114;2024-03-23T04:12:45;10.90;99.90
9125;DHT22;4597;48.730;9.114;2024-03-23T04:15:10;11.00;99.90
9125;DHT22;4597;48.730;9.114;2024-03-23T04:17:36;11.00;99.90
9125;DHT22;4597;48.730;9.114;2024-03-23T04:20:02;11.00;99.90
9125;DHT22;4597;48.730;9.114;2024-03-23T04:22:30;11.00;99.90
9125;DHT22;4597;48.730;9.114;2024-03-23T04:24:57;11.00;99.90
9125;DHT22;4597;48.730;9.114;2024-03-23T04:27:25;10.90;99.90
9125;DHT22;4597;48.730;9.114;2024-03-23T04:29:51;10.90;99.90
9125;DHT22;4597;48.730;9.114;2024-03-23T04:32:17;10.90;99.90
9125;DHT22;4597;48.730;9.114;2024-03-23T04:34:43;10.90;99.90
9125;DHT22;4597;48.730;9.114;2024-03-23T04:37:09;10.80;99.90
9125;DHT22;4597;48.730;9.114;2024-03-23T04:39:38;10.90;99.90
9125;DHT22;4597;48.730;9.114;2024-03-23T04:42:04;10.90;99.90
9125;DHT22;4597;48.730;9.114;2024-03-23T04:44:30;10.90;99.90
9125;DHT22;4597;48.730;9.114;2024-03-23T04:47:05;10.90;99.90
9125;DHT22;4597;48.730;9.114;2024-03-23T04:49:31;10.90;99.90
9125;DHT22;4597;48.730;9.114;2024-03-23T04:51:56;10.90;99.90
9125;DHT22;4597;48.730;9.114;2024-03-23T04:54:22;10.90;99.90
9125;DHT22;4597;48.730;9.114;2024-03-23T04:56:47;10.80;99.90
9125;DHT22;4597;48.730;9.114;2024-03-23T04:59:13;10.70;99.90
9125;DHT22;4597;48.730;9.114;2024-03-23T05:01:38;10.70;99.90
9125;DHT22;4597;48.730;9.114;2024-03-23T05:04:07;10.60;99.90
9125;DHT22;4597;48.730;9.114;2024-03-23T05:06:32;10.60;99.90
9125;DHT22;4597;48.730;9.114;2024-03-23T05:08:59;10.60;99.90
9125;DHT22;4597;48.730;9.114;2024-03-23T05:11:25;10.60;99.90
9125;DHT22;4597;48.730;9.114;2024-03-23T05:13:50;10.60;99.90
9125;DHT22;4597;48.730;9.114;2024-03-23T05:16:16;10.60;99.90
9125;DHT22;4597;48.730;9.114;2024-03-23T05:18:41;10.60;99.90
9125;DHT22;4597;48.730;9.114;2024-03-23T05:21:07;10.50;99.90
9125;DHT22;4597;48.730;9.114;2024-03-23T05:23:32;10.40;99.90
9125;DHT22;4597;48.730;9.114;2024-03-23T05:25:58;10.40;99.90
9125;DHT22;4597;48.730;9.114;2024-03-23T05:28:24;10.30;99.90
9125;DHT22;4597;48.730;9.114;2024-03-23T05:30:56;10.20;99.90
9125;DHT22;4597;48.730;9.114;2024-03-23T05:33:22;10.10;99.90
9125;DHT22;4597;48.730;9.114;2024-03-23T05:36:00;10.00;99.90
9125;DHT22;4597;48.730;9.114;2024-03-23T05:38:26;9.80;99.90
9125;DHT22;4597;48.730;9.114;2024-03-23T05:40:55;9.70;99.90
9125;DHT22;4597;48.730;9.114;2024-03-23T05:43:21;9.70;99.90
9125;DHT22;4597;48.730;9.114;2024-03-23T05:45:56;9.60;99.90
9125;DHT22;4597;48.730;9.114;2024-03-23T05:48:22;9.60;99.90
9125;DHT22;4597;48.730;9.114;2024-03-23T05:50:49;9.60;99.90
9125;DHT22;4597;48.730;9.114;2024-03-23T05:53:18;9.60;99.90
9125;DHT22;4597;48.730;9.114;2024-03-23T05:55:44;9.60;99.90
9125;DHT22;4597;48.730;9.114;2024-03-23T05:58:10;9.60;99.90
9125;DHT22;4597;48.730;9.114;2024-03-23T06:00:35;9.60;99.90
9125;DHT22;4597;48.730;9.114;2024-03-23T06:03:01;9.50;99.90
9125;DHT22;4597;48.730;9.114;2024-03-23T06:05:27;9.50;99.90
9125;DHT22;4597;48.730;9.114;2024-03-23T06:07:52;9.50;99.90
9125;DHT22;4597;48.730;9.114;2024-03-23T06:10:18;9.50;99.90
9125;DHT22;4597;48.730;9.114;2024-03-23T06:12:46;9.40;99.90
9125;DHT22;4597;48.730;9.114;2024-03-23T06:15:11;9.30;99.90
9125;DHT22;4597;48.730;9.114;2024-03-23T06:17:37;9.30;99.90
9125;DHT22;4597;48.730;9.114;2024-03-23T06:20:03;9.20;99.90
9125;DHT22;4597;48.730;9.114;2024-03-23T06:22:29;9.10;99.90
9125;DHT22;4597;48.730;9.114;2024-03-23T06:24:55;9.10;99.90
9125;DHT22;4597;48.730;9.114;2024-03-23T06:27:20;9.00;99.90
9125;DHT22;4597;48.730;9.114;2024-03-23T06:29:46;9.10;99.90
9125;DHT22;4597;48.730;9.114;2024-03-23T06:32:11;9.00;99.90
9125;DHT22;4597;48.730;9.114;2024-03-23T06:34:37;9.00;99.90
9125;DHT22;4597;48.730;9.114;2024-03-23T06:37:02;9.10;99.90
9125;DHT22;4597;48.730;9.114;2024-03-23T06:39:28;9.10;99.90
9125;DHT22;4597;48.730;9.114;2024-03-23T06:41:54;9.10;99.90
9125;DHT22;4597;48.730;9.114;2024-03-23T06:44:20;9.20;99.90
9125;DHT22;4597;48.730;9.114;2024-03-23T06:46:46;9.30;99.90
9125;DHT22;4597;48.730;9.114;2024-03-23T06:49:14;9.20;99.90
9125;DHT22;4597;48.730;9.114;2024-03-23T06:51:39;9.20;99.90
9125;DHT22;4597;48.730;9.114;2024-03-23T06:54:05;9.30;99.90
9125;DHT22;4597;48.730;9.114;2024-03-23T06:56:31;9.20;99.90
9125;DHT22;4597;48.730;9.114;2024-03-23T06:58:57;9.10;99.90
9125;DHT22;4597;48.730;9.114;2024-03-23T07:01:22;9.10;99.90
9125;DHT22;4597;48.730;9.114;2024-03-23T07:03:48;9.20;99.90
9125;DHT22;4597;48.730;9.114;2024-03-23T07:06:14;9.30;99.90
9125;DHT22;4597;48.730;9.114;2024-03-23T07:08:39;9.30;99.90
9125;DHT22;4597;48.730;9.114;2024-03-23T07:11:05;9.20;99.90
9125;DHT22;4597;48.730;9.114;2024-03-23T07:13:30;9.20;99.90
9125;DHT22;4597;48.730;9.114;2024-03-23T07:15:56;9.20;99.90
9125;DHT22;4597;48.730;9.114;2024-03-23T07:18:23;9.10;99.90
9125;DHT22;4597;48.730;9.114;2024-03-23T07:20:58;9.00;99.90
9125;DHT22;4597;48.730;9.114;2024-03-23T07:23:24;9.00;99.90
9125;DHT22;4597;48.730;9.114;2024-03-23T07:26:02;9.00;99.90
9125;DHT22;4597;48.730;9.114;2024-03-23T07:28:28;9.00;99.90
9125;DHT22;4597;48.730;9.114;2024-03-23T07:31:10;9.00;99.90
9125;DHT22;4597;48.730;9.114;2024-03-23T07:33:47;9.00;99.90
9125;DHT22;4597;48.730;9.114;2024-03-23T07:36:12;9.10;99.90
9125;DHT22;4597;48.730;9.114;2024-03-23T07:38:41;9.30;99.90
9125;DHT22;4597;48.730;9.114;2024-03-23T07:41:08;9.40;99.90
9125;DHT22;4597;48.730;9.114;2024-03-23T07:43:35;9.30;99.90
9125;DHT22;4597;48.730;9.114;2024-03-23T07:46:00;9.20;99.90
9125;DHT22;4597;48.730;9.114;2024-03-23T07:48:26;9.10;99.90
9125;DHT22;4597;48.730;9.114;2024-03-23T07:51:07;8.90;99.90
9125;DHT22;4597;48.730;9.114;2024-03-23T07:53:32;8.80;99.90
9125;DHT22;4597;48.730;9.114;2024-03-23T07:56:06;8.60;99.90
9125;DHT22;4597;48.730;9.114;2024-03-23T07:58:33;8.50;99.90
9125;DHT22;4597;48.730;9.114;2024-03-23T08:01:10;8.50;99.90
9125;DHT22;4597;48.730;9.114;2024-03-23T08:03:40;8.40;99.90
9125;DHT22;4597;48.730;9.114;2024-03-23T08:06:11;8.40;99.90
9125;DHT22;4597;48.730;9.114;2024-03-23T08:08:38;8.50;99.90
9125;DHT22;4597;48.730;9.114;2024-03-23T08:11:04;8.50;99.90
9125;DHT22;4597;48.730;9.114;2024-03-23T08:13:29;8.50;99.90
9125;DHT22;4597;48.730;9.114;2024-03-23T08:15:59;8.40;99.90
9125;DHT22;4597;48.730;9.114;2024-03-23T08:18:25;8.50;99.90
9125;DHT22;4597;48.730;9.114;2024-03-23T08:21:01;8.70;99.90
9125;DHT22;4597;48.730;9.114;2024-03-23T08:23:28;8.90;99.90
9125;DHT22;4597;48.730;9.114;2024-03-23T08:25:58;9.00;99.90
9125;DHT22;4597;48.730;9.114;2024-03-23T08:28:24;9.00;99.90
9125;DHT22;4597;48.730;9.114;2024-03-23T08:30:49;8.90;99.90
9125;DHT22;4597;48.730;9.114;2024-03-23T08:33:15;8.90;99.90
9125;DHT22;4597;48.730;9.114;2024-03-23T08:35:41;9.00;99.90
9125;DHT22;4597;48.730;9.114;2024-03-23T08:38:07;9.10;99.90
9125;DHT22;4597;48.730;9.114;2024-03-23T08:40:32;9.10;99.90
9125;DHT22;4597;48.730;9.114;2024-03-23T08:42:58;9.00;99.90
9125;DHT22;4597;48.730;9.114;2024-03-23T08:45:27;9.00;99.90
9125;DHT22;4597;48.730;9.114;2024-03-23T08:47:52;9.10;99.90
9125;DHT22;4597;48.730;9.114;2024-03-23T08:50:18;9.20;99.90
9125;DHT22;4597;48.730;9.114;2024-03-23T08:52:44;9.20;99.90
9125;DHT22;4597;48.730;9.114;2024-03-23T08:55:09;9.20;99.90
9125;DHT22;4597;48.730;9.114;2024-03-23T08:57:35;9.10;99.90
9125;DHT22;4597;48.730;9.114;2024-03-23T09:00:01;9.20;99.90
9125;DHT22;4597;48.730;9.114;2024-03-23T09:02:26;9.10;99.90
9125;DHT22;4597;48.730;9.114;2024-03-23T09:04:52;9.00;99.90
9125;DHT22;4597;48.730;9.114;2024-03-23T09:07:17;8.80;99.90
9125;DHT22;4597;48.730;9.114;2024-03-23T09:09:43;8.70;99.90
9125;DHT22;4597;48.730;9.114;2024-03-23T09:12:08;8.40;99.90
9125;DHT22;4597;48.730;9.114;2024-03-23T09:14:34;8.20;99.90
9125;DHT22;4597;48.730;9.114;2024-03-23T09:16:59;8.20;99.90
9125;DHT22;4597;48.730;9.114;2024-03-23T09:19:30;8.20;99.90
9125;DHT22;4597;48.730;9.114;2024-03-23T09:21:55;8.40;99.90
9125;DHT22;4597;48.730;9.114;2024-03-23T09:24:21;8.50;99.90
9125;DHT22;4597;48.730;9.114;2024-03-23T09:26:47;8.50;99.90
9125;DHT22;4597;48.730;9.114;2024-03-23T09:29:12;8.60;99.90
9125;DHT22;4597;48.730;9.114;2024-03-23T09:31:39;8.50;99.90
9125;DHT22;4597;48.730;9.114;2024-03-23T09:34:04;8.50;99.90
9125;DHT22;4597;48.730;9.114;2024-03-23T09:36:30;8.50;99.90
9125;DHT22;4597;48.730;9.114;2024-03-23T09:38:56;8.50;99.90
9125;DHT22;4597;48.730;9.114;2024-03-23T09:41:21;8.60;99.90
9125;DHT22;4597;48.730;9.114;2024-03-23T09:43:47;8.60;99.90
9125;DHT22;4597;48.730;9.114;2024-03-23T09:46:14;8.60;99.90
9125;DHT22;4597;48.730;9.114;2024-03-23T09:48:40;8.70;99.90
9125;DHT22;4597;48.730;9.114;2024-03-23T09:51:06;8.70;99.90
9125;DHT22;4597;48.730;9.114;2024-03-23T09:53:35;8.80;99.90
9125;DHT22;4597;48.730;9.114;2024-03-23T09:56:03;9.00;99.90
9125;DHT22;4597;48.730;9.114;2024-03-23T09:58:28;9.10;99.90
9125;DHT22;4597;48.730;9.114;2024-03-23T10:00:54;9.00;99.90
9125;DHT22;4597;48.730;9.114;2024-03-23T10:03:19;8.90;99.90
9125;DHT22;4597;48.730;9.114;2024-03-23T10:05:45;8.90;99.90
9125;DHT22;4597;48.730;9.114;2024-03-23T10:08:18;8.80;99.90
9125;DHT22;4597;48.730;9.114;2024-03-23T10:10:46;8.80;99.90
9125;DHT22;4597;48.730;9.114;2024-03-23T10:13:27;8.90;99.90
9125;DHT22;4597;48.730;9.114;2024-03-23T10:15:56;9.00;99.90
9125;DHT22;4597;48.730;9.114;2024-03-23T10:18:22;9.10;99.90
9125;DHT22;4597;48.730;9.114;2024-03-23T10:23:30;9.20;99.90
9125;DHT22;4597;48.730;9.114;2024-03-23T10:26:18;9.10;99.90
9125;DHT22;4597;48.730;9.114;2024-03-23T10:28:54;9.10;99.90
9125;DHT22;4597;48.730;9.114;2024-03-23T10:31:20;9.10;99.90
9125;DHT22;4597;48.730;9.114;2024-03-23T10:33:47;9.10;99.90
9125;DHT22;4597;48.730;9.114;2024-03-23T10:36:13;8.80;99.90
9125;DHT22;4597;48.730;9.114;2024-03-23T10:38:43;8.30;99.90
9125;DHT22;4597;48.730;9.114;2024-03-23T10:41:10;8.00;99.90
9125;DHT22;4597;48.730;9.114;2024-03-23T10:43:37;8.00;99.90
9125;DHT22;4597;48.730;9.114;2024-03-23T10:46:03;7.90;99.90
9125;DHT22;4597;48.730;9.114;2024-03-23T10:48:29;7.70;99.90
9125;DHT22;4597;48.730;9.114;2024-03-23T10:50:55;7.50;99.90
9125;DHT22;4597;48.730;9.114;2024-03-23T10:53:22;7.10;99.90
9125;DHT22;4597;48.730;9.114;2024-03-23T10:55:51;7.00;99.90
9125;DHT22;4597;48.730;9.114;2024-03-23T10:58:27;6.90;99.90
9125;DHT22;4597;48.730;9.114;2024-03-23T11:00:54;7.00;99.90
9125;DHT22;4597;48.730;9.114;2024-03-23T11:03:39;7.20;99.90
9125;DHT22;4597;48.730;9.114;2024-03-23T11:06:06;7.40;99.90
9125;DHT22;4597;48.730;9.114;2024-03-23T11:08:39;7.50;99.90
9125;DHT22;4597;48.730;9.114;2024-03-23T11:11:18;7.80;99.90
9125;DHT22;4597;48.730;9.114;2024-03-23T11:13:47;8.00;99.90
9125;DHT22;4597;48.730;9.114;2024-03-23T11:18:39;7.80;99.90
9125;DHT22;4597;48.730;9.114;2024-03-23T11:21:07;7.80;99.90
9125;DHT22;4597;48.730;9.114;2024-03-23T11:23:32;7.70;99.90
9125;DHT22;4597;48.730;9.114;2024-03-23T11:25:58;7.70;99.90
9125;DHT22;4597;48.730;9.114;2024-03-23T11:28:23;7.80;99.90
9125;DHT22;4597;48.730;9.114;2024-03-23T11:30:49;7.80;99.90
9125;DHT22;4597;48.730;9.114;2024-03-23T11:33:14;7.80;99.90
9125;DHT22;4597;48.730;9.114;2024-03-23T11:35:41;8.00;99.90
9125;DHT22;4597;48.730;9.114;2024-03-23T11:38:17;8.20;99.90
9125;DHT22;4597;48.730;9.114;2024-03-23T11:40:46;8.30;99.90
9125;DHT22;4597;48.730;9.114;2024-03-23T11:43:17;8.40;99.90
9125;DHT22;4597;48.730;9.114;2024-03-23T11:45:44;8.40;99.90
9125;DHT22;4597;48.730;9.114;2024-03-23T11:48:12;8.50;99.90
9125;DHT22;4597;48.730;9.114;2024-03-23T11:50:39;8.60;99.90
9125;DHT22;4597;48.730;9.114;2024-03-23T11:55:47;9.00;99.90
9125;DHT22;4597;48.730;9.114;2024-03-23T11:58:14;9.40;99.90
9125;DHT22;4597;48.730;9.114;2024-03-23T12:00:40;9.50;99.90
9125;DHT22;4597;48.730;9.114;2024-03-23T12:03:06;9.50;99.90
9125;DHT22;4597;48.730;9.114;2024-03-23T12:05:32;9.50;99.90
9125;DHT22;4597;48.730;9.114;2024-03-23T12:11:04;9.60;99.90
9125;DHT22;4597;48.730;9.114;2024-03-23T12:13:30;9.80;99.90
9125;DHT22;4597;48.730;9.114;2024-03-23T12:16:16;9.90;99.90
9125;DHT22;4597;48.730;9.114;2024-03-23T12:18:44;9.90;99.90
9125;DHT22;4597;48.730;9.114;2024-03-23T12:21:10;10.00;99.60
9125;DHT22;4597;48.730;9.114;2024-03-23T12:23:38;10.00;97.60
9125;DHT22;4597;48.730;9.114;2024-03-23T12:26:04;10.00;97.30
9125;DHT22;4597;48.730;9.114;2024-03-23T12:28:29;10.30;99.90
9125;DHT22;4597;48.730;9.114;2024-03-23T12:30:55;10.50;99.30
9125;DHT22;4597;48.730;9.114;2024-03-23T12:33:21;10.60;98.10
9125;DHT22;4597;48.730;9.114;2024-03-23T12:35:47;10.30;94.60
9125;DHT22;4597;48.730;9.114;2024-03-23T12:38:12;10.10;95.10
9125;DHT22;4597;48.730;9.114;2024-03-23T12:40:38;10.10;94.50
9125;DHT22;4597;48.730;9.114;2024-03-23T12:43:04;10.10;95.60
9125;DHT22;4597;48.730;9.114;2024-03-23T12:45:29;10.20;96.60
9125;DHT22;4597;48.730;9.114;2024-03-23T12:47:55;10.30;95.40
9125;DHT22;4597;48.730;9.114;2024-03-23T12:50:21;10.40;94.70
9125;DHT22;4597;48.730;9.114;2024-03-23T12:52:47;10.50;93.70
9125;DHT22;4597;48.730;9.114;2024-03-23T12:55:13;10.40;95.30
9125;DHT22;4597;48.730;9.114;2024-03-23T12:57:38;10.50;92.20
9125;DHT22;4597;48.730;9.114;2024-03-23T13:00:05;10.60;84.20
9125;DHT22;4597;48.730;9.114;2024-03-23T13:02:31;10.70;88.00
9125;DHT22;4597;48.730;9.114;2024-03-23T13:04:57;10.70;85.00
9125;DHT22;4597;48.730;9.114;2024-03-23T13:07:23;10.90;79.10
9125;DHT22;4597;48.730;9.114;2024-03-23T13:09:52;11.10;79.80
9125;DHT22;4597;48.730;9.114;2024-03-23T13:12:19;10.90;80.30
9125;DHT22;4597;48.730;9.114;2024-03-23T13:14:45;11.20;84.40
9125;DHT22;4597;48.730;9.114;2024-03-23T13:17:11;11.30;85.80
9125;DHT22;4597;48.730;9.114;2024-03-23T13:19:37;11.40;82.40
9125;DHT22;4597;48.730;9.114;2024-03-23T13:22:03;11.40;77.40
9125;DHT22;4597;48.730;9.114;2024-03-23T13:24:29;11.30;75.10
9125;DHT22;4597;48.730;9.114;2024-03-23T13:26:55;11.50;75.80
9125;DHT22;4597;48.730;9.114;2024-03-23T13:29:22;11.80;78.30
9125;DHT22;4597;48.730;9.114;2024-03-23T13:31:48;12.10;73.70
9125;DHT22;4597;48.730;9.114;2024-03-23T13:34:14;11.70;69.10
9125;DHT22;4597;48.730;9.114;2024-03-23T13:36:41;11.20;72.00
9125;DHT22;4597;48.730;9.114;2024-03-23T13:39:07;10.50;91.70
9125;DHT22;4597;48.730;9.114;2024-03-23T13:41:48;9.60;99.90
9125;DHT22;4597;48.730;9.114;2024-03-23T13:44:14;8.80;99.90
9125;DHT22;4597;48.730;9.114;2024-03-23T13:46:43;8.20;99.90
9125;DHT22;4597;48.730;9.114;2024-03-23T13:49:28;7.90;99.90
9125;DHT22;4597;48.730;9.114;2024-03-23T13:51:55;7.80;99.90
9125;DHT22;4597;48.730;9.114;2024-03-23T13:54:21;7.80;99.90
9125;DHT22;4597;48.730;9.114;2024-03-23T13:56:51;7.90;99.90
9125;DHT22;4597;48.730;9.114;2024-03-23T13:59:17;7.90;99.90
9125;DHT22;4597;48.730;9.114;2024-03-23T14:01:46;8.20;99.90
9125;DHT22;4597;48.730;9.114;2024-03-23T14:04:12;8.60;99.90
9125;DHT22;4597;48.730;9.114;2024-03-23T14:06:38;8.70;99.90
9125;DHT22;4597;48.730;9.114;2024-03-23T14:09:03;8.80;99.90
9125;DHT22;4597;48.730;9.114;2024-03-23T14:11:29;8.70;99.90
9125;DHT22;4597;48.730;9.114;2024-03-23T14:13:55;8.90;99.90
9125;DHT22;4597;48.730;9.114;2024-03-23T14:16:21;9.00;99.90
9125;DHT22;4597;48.730;9.114;2024-03-23T14:18:47;9.00;99.90
9125;DHT22;4597;48.730;9.114;2024-03-23T14:21:12;8.90;99.90
9125;DHT22;4597;48.730;9.114;2024-03-23T14:23:38;9.10;99.90
9125;DHT22;4597;48.730;9.114;2024-03-23T14:26:03;9.60;99.90
9125;DHT22;4597;48.730;9.114;2024-03-23T14:28:29;10.40;99.90
9125;DHT22;4597;48.730;9.114;2024-03-23T14:30:56;10.70;94.80
9125;DHT22;4597;48.730;9.114;2024-03-23T14:33:21;10.70;91.60
9125;DHT22;4597;48.730;9.114;2024-03-23T14:35:54;10.90;83.90
9125;DHT22;4597;48.730;9.114;2024-03-23T14:38:20;11.20;81.90
9125;DHT22;4597;48.730;9.114;2024-03-23T14:40:46;10.90;79.50
9125;DHT22;4597;48.730;9.114;2024-03-23T14:43:12;10.60;73.20
9125;DHT22;4597;48.730;9.114;2024-03-23T14:46:10;10.40;75.60
9125;DHT22;4597;48.730;9.114;2024-03-23T14:48:35;10.30;74.90
9125;DHT22;4597;48.730;9.114;2024-03-23T14:51:01;9.90;77.30
9125;DHT22;4597;48.730;9.114;2024-03-23T14:53:30;9.80;79.60
9125;DHT22;4597;48.730;9.114;2024-03-23T14:55:56;9.70;78.60
9125;DHT22;4597;48.730;9.114;2024-03-23T14:58:22;9.80;74.80
9125;DHT22;4597;48.730;9.114;2024-03-23T15:00:48;9.60;74.70
9125;DHT22;4597;48.730;9.114;2024-03-23T15:03:15;9.50;75.10
9125;DHT22;4597;48.730;9.114;2024-03-23T15:05:41;9.60;78.10
9125;DHT22;4597;48.730;9.114;2024-03-23T15:08:06;10.20;76.60
9125;DHT22;4597;48.730;9.114;2024-03-23T15:10:35;11.10;76.60
9125;DHT22;4597;48.730;9.114;2024-03-23T15:13:00;11.90;74.10
9125;DHT22;4597;48.730;9.114;2024-03-23T15:15:26;12.60;70.50
9125;DHT22;4597;48.730;9.114;2024-03-23T15:17:51;13.20;66.10
9125;DHT22;4597;48.730;9.114;2024-03-23T15:20:17;14.20;57.80
9125;DHT22;4597;48.730;9.114;2024-03-23T15:22:43;15.20;53.70
9125;DHT22;4597;48.730;9.114;2024-03-23T15:25:08;17.00;49.40
9125;DHT22;4597;48.730;9.114;2024-03-23T15:27:34;18.40;43.20
9125;DHT22;4597;48.730;9.114;2024-03-23T15:29:59;19.40;35.60
9125;DHT22;4597;48.730;9.114;2024-03-23T15:32:25;19.60;34.00
9125;DHT22;4597;48.730;9.114;2024-03-23T15:34:50;19.50;32.70
9125;DHT22;4597;48.730;9.114;2024-03-23T15:37:17;19.20;32.60
9125;DHT22;4597;48.730;9.114;2024-03-23T15:39:43;19.80;31.50
9125;DHT22;4597;48.730;9.114;2024-03-23T15:42:08;20.50;30.20
9125;DHT22;4597;48.730;9.114;2024-03-23T15:44:35;20.10;29.00
9125;DHT22;4597;48.730;9.114;2024-03-23T15:47:00;19.70;30.00
9125;DHT22;4597;48.730;9.114;2024-03-23T15:49:26;20.10;29.20
9125;DHT22;4597;48.730;9.114;2024-03-23T15:51:51;20.20;28.70
9125;DHT22;4597;48.730;9.114;2024-03-23T15:54:17;20.70;27.50
9125;DHT22;4597;48.730;9.114;2024-03-23T15:56:42;19.90;27.40
9125;DHT22;4597;48.730;9.114;2024-03-23T15:59:08;19.70;28.70
9125;DHT22;4597;48.730;9.114;2024-03-23T16:01:33;19.40;28.60
9125;DHT22;4597;48.730;9.114;2024-03-23T16:04:03;18.10;30.20
9125;DHT22;4597;48.730;9.114;2024-03-23T16:06:28;16.80;32.20
9125;DHT22;4597;48.730;9.114;2024-03-23T16:08:54;16.70;34.20
9125;DHT22;4597;48.730;9.114;2024-03-23T16:11:19;17.30;32.30
9125;DHT22;4597;48.730;9.114;2024-03-23T16:13:45;16.30;33.30
9125;DHT22;4597;48.730;9.114;2024-03-23T16:16:12;14.60;37.10
9125;DHT22;4597;48.730;9.114;2024-03-23T16:18:38;13.20;41.00
9125;DHT22;4597;48.730;9.114;2024-03-23T16:21:06;12.00;44.60
9125;DHT22;4597;48.730;9.114;2024-03-23T16:23:33;11.20;47.60
9125;DHT22;4597;48.730;9.114;2024-03-23T16:25:59;10.60;57.90
9125;DHT22;4597;48.730;9.114;2024-03-23T16:28:31;10.20;73.10
9125;DHT22;4597;48.730;9.114;2024-03-23T16:31:05;9.80;91.60
9125;DHT22;4597;48.730;9.114;2024-03-23T16:33:35;9.70;94.40
9125;DHT22;4597;48.730;9.114;2024-03-23T16:36:02;9.30;96.30
9125;DHT22;4597;48.730;9.114;2024-03-23T16:38:30;9.20;99.10
9125;DHT22;4597;48.730;9.114;2024-03-23T16:40:59;9.20;99.90
9125;DHT22;4597;48.730;9.114;2024-03-23T16:43:25;9.30;99.90
9125;DHT22;4597;48.730;9.114;2024-03-23T16:45:52;9.10;99.90
9125;DHT22;4597;48.730;9.114;2024-03-23T16:48:18;8.90;99.90
9125;DHT22;4597;48.730;9.114;2024-03-23T16:50:44;8.80;99.90
9125;DHT22;4597;48.730;9.114;2024-03-23T16:53:09;8.80;99.90
9125;DHT22;4597;48.730;9.114;2024-03-23T16:55:35;8.70;99.90
9125;DHT22;4597;48.730;9.114;2024-03-23T16:58:01;8.80;99.90
9125;DHT22;4597;48.730;9.114;2024-03-23T17:00:26;8.80;99.90
9125;DHT22;4597;48.730;9.114;2024-03-23T17:02:52;8.60;99.90
9125;DHT22;4597;48.730;9.114;2024-03-23T17:05:17;8.40;99.90
9125;DHT22;4597;48.730;9.114;2024-03-23T17:07:43;8.10;99.90
9125;DHT22;4597;48.730;9.114;2024-03-23T17:10:09;8.00;99.90
9125;DHT22;4597;48.730;9.114;2024-03-23T17:12:35;7.80;99.90
9125;DHT22;4597;48.730;9.114;2024-03-23T17:15:04;7.70;99.90